Time;durP1;ratioP1;P1;durP2;ratioP2;P2;SDS_P1;SDS_P2;PMS_P1;PMS_P2;Temp;Humidity;BMP_temperature;BMP_pressure;BME280_temperature;BME280_humidity;BME280_pressure;Samples;Min_cycle;Max_cycle;Signal;HPM_P1;HPM_P2
2023/01/03 00:00:37;;;;;;;12.73;5.83;;;12.50;77.20;12.70;97369.00;;;;5035836;28;20223;-85
2023/01/03 00:03:04;;;;;;;8.83;5.53;;;12.50;77.20;12.70;97378.00;;;;5036099;28;20204;-85
2023/01/03 00:05:34;;;;;;;7.37;5.40;;;12.50;77.20;12.70;97360.00;;;;5035665;28;20299;-84
2023/01/03 00:08:02;;;;;;;5.90;4.50;;;12.60;77.30;12.70;97370.00;;;;5034453;28;20201;-84
2023/01/03 00:10:29;;;;;;;6.73;4.07;;;12.50;77.20;12.70;97376.00;;;;5035150;28;20209;-85
2023/01/03 00:12:56;;;;;;;8.07;3.77;;;12.60;77.20;12.80;97377.00;;;;5035534;28;20296;-89
2023/01/03 00:15:23;;;;;;;3.97;3.50;;;12.60;77.30;12.90;97387.00;;;;5034638;28;20311;-85
2023/01/03 00:17:54;;;;;;;5.33;3.60;;;12.60;77.40;12.90;97386.00;;;;5036151;28;20559;-85
2023/01/03 00:20:22;;;;;;;2.93;2.63;;;12.70;77.50;12.90;97390.00;;;;5034842;28;20217;-85
2023/01/03 00:22:49;;;;;;;3.73;2.33;;;12.70;77.60;13.00;97386.00;;;;5035939;28;20229;-85
2023/01/03 00:25:16;;;;;;;3.80;1.87;;;12.70;77.60;13.00;97386.00;;;;5037201;28;20249;-87
2023/01/03 00:27:43;;;;;;;3.50;1.63;;;12.80;77.70;13.10;97383.00;;;;5040555;28;20297;-85
2023/01/03 00:30:12;;;;;;;2.20;1.30;;;12.80;77.70;13.10;97383.00;;;;5038329;28;20210;-84
2023/01/03 00:32:39;;;;;;;2.77;1.10;;;12.90;77.60;13.20;97393.00;;;;5037586;28;20568;-85
2023/01/03 00:35:09;;;;;;;0.60;0.60;;;13.00;77.60;13.20;97394.00;;;;5035489;28;20316;-85
2023/01/03 00:37:36;;;;;;;0.57;0.57;;;13.00;77.30;13.30;97400.00;;;;5041599;28;20228;-85
2023/01/03 00:40:05;;;;;;;1.63;0.80;;;13.10;77.30;13.30;97405.00;;;;5039056;28;20663;-85
2023/01/03 00:43:27;;;;;;;8.70;0.70;;;13.10;77.10;13.40;97409.00;;;;5039683;28;20295;-86
2023/01/03 00:45:19;;;;;;;0.17;0.17;;;13.20;76.90;13.40;97407.00;;;;5039340;28;20714;-84
2023/01/03 00:47:46;;;;;;;0.70;0.30;;;13.20;77.40;13.50;97405.00;;;;5037373;28;20205;-88
2023/01/03 00:50:15;;;;;;;0.30;0.30;;;13.30;76.30;13.50;97401.00;;;;5038479;28;20284;-85
2023/01/03 00:52:42;;;;;;;0.20;0.20;;;13.30;76.20;13.60;97403.00;;;;5039716;28;20208;-85
2023/01/03 00:55:10;;;;;;;0.50;0.20;;;13.40;76.00;13.60;97413.00;;;;5038164;28;20725;-85
2023/01/03 00:57:37;;;;;;;2.43;0.30;;;13.50;75.80;13.70;97418.00;;;;5039311;28;20293;-87
2023/01/03 01:00:05;;;;;;;0.30;0.20;;;13.50;75.50;13.70;97416.00;;;;5038202;28;20715;-85
2023/01/03 01:02:32;;;;;;;0.37;0.30;;;13.50;75.40;13.80;97422.00;;;;5040058;28;20293;-85
2023/01/03 01:04:59;;;;;;;0.30;0.20;;;13.60;75.40;13.80;97415.00;;;;5038225;28;20310;-85
2023/01/03 01:07:28;;;;;;;0.20;0.20;;;13.60;74.90;13.90;97422.00;;;;5037940;28;20208;-84
2023/01/03 01:09:55;;;;;;;0.20;0.10;;;13.70;75.70;13.90;97423.00;;;;5039928;28;20236;-85
2023/01/03 01:12:22;;;;;;;0.83;0.20;;;13.70;74.80;13.90;97416.00;;;;5039326;28;20201;-84
2023/01/03 01:14:50;;;;;;;3.70;0.50;;;13.80;74.70;13.90;97426.00;;;;5039230;28;20213;-87
2023/01/03 01:17:17;;;;;;;1.07;0.20;;;13.80;74.50;13.90;97419.00;;;;5040189;28;20205;-86
2023/01/03 01:19:44;;;;;;;0.20;0.20;;;13.80;74.30;14.00;97419.00;;;;5046585;28;20307;-84
2023/01/03 01:22:12;;;;;;;1.57;0.57;;;13.80;74.10;14.00;97418.00;;;;5038564;28;20280;-84
2023/01/03 01:24:41;;;;;;;2.97;0.30;;;13.80;73.90;14.00;97412.00;;;;5040462;28;20266;-85
2023/01/03 01:27:08;;;;;;;2.77;0.30;;;13.90;73.80;14.00;97429.00;;;;5041329;28;20284;-85
2023/01/03 01:29:37;;;;;;;2.27;0.20;;;13.90;73.80;14.00;97421.00;;;;5040747;28;20204;-84
2023/01/03 01:32:05;;;;;;;1.67;0.33;;;13.90;73.70;14.00;97426.00;;;;5037872;28;20219;-84
2023/01/03 01:34:33;;;;;;;0.37;0.20;;;13.90;73.60;14.00;97426.00;;;;5035333;28;20255;-87
2023/01/03 01:37:00;;;;;;;0.73;0.33;;;13.90;73.50;14.00;97419.00;;;;5039206;28;20643;-85
2023/01/03 01:39:29;;;;;;;1.67;0.40;;;13.90;73.50;14.00;97419.00;;;;5039480;28;20213;-85
2023/01/03 01:44:56;;;;;;;1.40;0.30;;;13.90;73.40;14.10;97420.00;;;;5040115;28;20356;-85
2023/01/03 01:47:50;;;;;;;0.20;0.20;;;14.00;73.20;14.10;97439.00;;;;5039480;28;21285;-86
2023/01/03 01:50:25;;;;;;;0.23;0.20;;;14.00;72.70;14.10;97441.00;;;;5037832;28;20730;-87
2023/01/03 01:52:58;;;;;;;0.20;0.20;;;14.00;73.20;14.20;97435.00;;;;5039690;28;20576;-84
2023/01/03 01:55:31;;;;;;;0.47;0.30;;;14.00;73.00;14.20;97440.00;;;;5038723;28;20228;-85
2023/01/03 01:58:01;;;;;;;1.57;0.30;;;14.00;73.10;14.20;97448.00;;;;5038771;28;20308;-85
2023/01/03 02:00:29;;;;;;;0.27;0.20;;;14.00;73.00;14.20;97451.00;;;;5038571;28;20221;-84
2023/01/03 02:02:56;;;;;;;0.30;0.13;;;14.00;72.90;14.20;97453.00;;;;5037292;28;20204;-88
2023/01/03 02:05:24;;;;;;;2.00;0.33;;;14.00;72.80;14.20;97453.00;;;;5038747;28;20298;-84
2023/01/03 02:07:53;;;;;;;0.10;0.10;;;14.00;72.70;14.20;97460.00;;;;5037430;28;20232;-85
2023/01/03 02:10:32;;;;;;;4.43;0.27;;;14.10;72.80;14.20;97469.00;;;;5035830;28;20706;-85
2023/01/03 02:13:13;;;;;;;16.23;1.43;;;14.10;72.70;14.20;97474.00;;;;5036214;28;20275;-84
2023/01/03 02:16:17;;;;;;;0.40;0.10;;;14.10;72.60;14.20;97473.00;;;;5037091;28;20236;-85
2023/01/03 02:19:27;;;;;;;1.13;0.20;;;14.10;72.10;14.20;97477.00;;;;5036922;28;20283;-86
2023/01/03 02:22:40;;;;;;;0.20;0.10;;;14.10;72.50;14.20;97474.00;;;;5038582;28;20201;-83
2023/01/03 02:26:11;;;;;;;0.30;0.30;;;14.10;72.20;14.20;97472.00;;;;5013882;28;20235;-86
2023/01/03 02:29:34;;;;;;;2.93;0.40;;;14.10;71.80;14.20;97471.00;;;;5027571;28;20279;-84
2023/01/03 02:32:13;;;;;;;34.53;2.57;;;14.10;72.00;14.20;97472.00;;;;5039627;28;20236;-85
2023/01/03 02:34:49;;;;;;;0.50;0.20;;;14.10;72.60;14.20;97476.00;;;;5041007;28;20230;-86
2023/01/03 02:37:30;;;;;;;3.43;0.27;;;14.10;72.70;14.20;97471.00;;;;5040532;28;20291;-85
2023/01/03 02:40:08;;;;;;;22.17;1.40;;;14.10;72.50;14.20;97472.00;;;;5041245;28;20690;-85
2023/01/03 02:43:01;;;;;;;0.33;0.10;;;14.00;72.60;14.20;97471.00;;;;5038371;28;20220;-85
2023/01/03 02:45:52;;;;;;;6.70;0.63;;;14.00;72.60;14.20;97476.00;;;;5039177;28;20220;-85
2023/01/03 02:48:34;;;;;;;11.20;0.93;;;14.10;72.40;14.20;97479.00;;;;5037501;28;20264;-85
2023/01/03 02:51:07;;;;;;;6.83;0.67;;;14.00;72.40;14.20;97481.00;;;;5038137;28;20207;-84
2023/01/03 02:53:44;;;;;;;34.00;2.33;;;14.00;72.60;14.10;97481.00;;;;5037787;28;20190;-84
2023/01/03 02:56:17;;;;;;;1.50;0.30;;;14.00;72.60;14.10;97481.00;;;;5037145;28;20656;-87
2023/01/03 02:58:49;;;;;;;3.67;0.40;;;14.00;72.70;14.10;97484.00;;;;5036804;28;20209;-86
2023/01/03 03:01:19;;;;;;;4.47;0.73;;;14.00;72.50;14.10;97484.00;;;;5038301;28;20282;-86
2023/01/03 03:03:48;;;;;;;11.30;0.90;;;14.00;72.50;14.10;97490.00;;;;5036820;28;20312;-87
2023/01/03 03:06:25;;;;;;;12.23;1.00;;;14.00;72.60;14.10;97483.00;;;;5038225;28;20279;-85
2023/01/03 03:08:52;;;;;;;0.93;0.30;;;14.00;72.50;14.10;97487.00;;;;5036658;28;20295;-85
2023/01/03 03:14:16;;;;;;;3.40;0.40;;;14.00;72.50;14.10;97469.00;;;;5037167;28;20246;-85
2023/01/03 03:16:48;;;;;;;0.10;0.10;;;14.00;72.50;14.10;97466.00;;;;5038182;28;20254;-84
2023/01/03 03:25:08;;;;;;;20.83;1.83;;;13.90;72.00;14.00;97479.00;;;;5014140;28;20216;-85
2023/01/03 03:30:26;;;;;;;2.77;0.30;;;13.90;72.30;14.00;97483.00;;;;5036588;28;20221;-85
2023/01/03 03:33:00;;;;;;;0.50;0.10;;;13.90;72.30;14.00;97485.00;;;;5037194;28;20292;-84
2023/01/03 03:35:32;;;;;;;8.83;0.30;;;13.80;72.10;14.00;97489.00;;;;5036874;28;20235;-85
2023/01/03 03:38:03;;;;;;;0.20;0.20;;;13.80;72.10;14.00;97491.00;;;;5035134;28;20283;-85
2023/01/03 03:46:21;;;;;;;0.20;0.20;;;13.80;72.40;13.90;97485.00;;;;5036687;28;20242;-85
2023/01/03 03:51:49;;;;;;;8.17;0.80;;;13.80;72.20;13.90;97480.00;;;;5036318;28;20200;-85
2023/01/03 03:54:22;;;;;;;52.83;4.20;;;13.70;72.30;13.90;97478.00;;;;5034640;28;20225;-84
2023/01/03 03:56:57;;;;;;;26.80;2.23;;;13.70;72.60;13.80;97470.00;;;;5037153;28;20189;-85
2023/01/03 03:59:26;;;;;;;5.30;0.33;;;13.70;72.60;13.80;97467.00;;;;5041118;28;20675;-85
2023/01/03 04:01:59;;;;;;;14.50;1.37;;;13.60;72.50;13.80;97475.00;;;;5041592;28;20216;-85
2023/01/03 04:04:32;;;;;;;4.53;0.40;;;13.60;72.40;13.70;97473.00;;;;5040162;28;20797;-85
2023/01/03 04:07:02;;;;;;;2.60;0.40;;;13.60;72.50;13.70;97476.00;;;;5041077;28;20205;-85
2023/01/03 04:09:29;;;;;;;24.67;2.57;;;13.60;72.60;13.70;97480.00;;;;5042617;28;20204;-84
2023/01/03 04:11:56;;;;;;;33.47;2.27;;;13.50;72.50;13.70;97481.00;;;;5043323;28;20236;-83
2023/01/03 04:14:23;;;;;;;3.57;0.70;;;13.50;72.60;13.60;97481.00;;;;5044267;28;20304;-84
2023/01/03 04:16:50;;;;;;;25.77;1.87;;;13.50;72.80;13.60;97487.00;;;;5058188;28;20465;-88
2023/01/03 04:19:17;;;;;;;12.37;1.20;;;13.40;72.60;13.50;97485.00;;;;5064900;28;20197;-87
2023/01/03 04:21:45;;;;;;;0.53;0.30;;;13.40;72.70;13.50;97483.00;;;;5049736;28;20248;-85
2023/01/03 04:24:13;;;;;;;13.70;1.57;;;13.40;72.80;13.50;97485.00;;;;5039713;28;20312;-84
2023/01/03 04:26:40;;;;;;;11.27;0.87;;;13.40;72.90;13.50;97477.00;;;;5040290;28;20291;-85
2023/01/03 04:29:07;;;;;;;12.97;1.47;;;13.40;72.90;13.50;97483.00;;;;5041249;28;20700;-84
2023/01/03 04:31:34;;;;;;;1.07;0.40;;;13.30;73.70;13.40;97487.00;;;;5040956;28;20236;-85
2023/01/03 04:34:02;;;;;;;1.17;0.50;;;13.30;73.00;13.40;97485.00;;;;5038713;28;20308;-86
2023/01/03 04:36:29;;;;;;;7.83;1.00;;;13.30;73.00;13.40;97495.00;;;;5038426;28;20292;-84
2023/01/03 04:38:56;;;;;;;11.00;1.30;;;13.20;73.00;13.40;97495.00;;;;5040671;28;20291;-86
2023/01/03 04:41:24;;;;;;;4.27;0.70;;;13.20;73.20;13.40;97499.00;;;;5039360;28;20252;-85
2023/01/03 04:44:03;;;;;;;10.43;1.00;;;13.20;73.20;13.40;97502.00;;;;5039305;28;20257;-85
2023/01/03 04:46:32;;;;;;;4.53;0.40;;;13.20;73.20;13.40;97514.00;;;;5039545;28;20201;-85
2023/01/03 04:49:00;;;;;;;7.07;1.07;;;13.20;73.30;13.40;97500.00;;;;5040288;28;20205;-88
2023/01/03 04:51:28;;;;;;;0.30;0.30;;;13.20;73.40;13.30;97502.00;;;;5039412;28;20288;-85
2023/01/03 04:53:56;;;;;;;37.30;2.63;;;13.20;73.30;13.40;97500.00;;;;5039316;28;20243;-85
2023/01/03 04:56:30;;;;;;;7.13;1.00;;;13.20;73.40;13.40;97501.00;;;;5039283;28;20200;-84
2023/01/03 04:58:57;;;;;;;35.03;2.73;;;13.20;73.40;13.40;97499.00;;;;5037874;28;20283;-85
2023/01/03 05:01:25;;;;;;;24.53;2.50;;;13.20;73.60;13.40;97510.00;;;;5037126;28;20221;-86
2023/01/03 05:03:57;;;;;;;0.50;0.50;;;13.20;73.80;13.40;97512.00;;;;5039277;28;20221;-85
2023/01/03 05:06:25;;;;;;;9.73;1.10;;;13.20;73.70;13.40;97515.00;;;;5038241;28;20347;-84
2023/01/03 05:08:52;;;;;;;20.70;1.87;;;13.20;73.70;13.40;97517.00;;;;5038232;28;20280;-84
2023/01/03 05:11:19;;;;;;;18.83;1.87;;;13.20;73.80;13.40;97522.00;;;;5039124;28;20575;-84
2023/01/03 05:13:48;;;;;;;14.30;1.77;;;13.20;73.80;13.40;97519.00;;;;5037721;28;20244;-85
2023/01/03 05:16:16;;;;;;;18.03;1.63;;;13.20;73.90;13.40;97516.00;;;;5039422;28;20722;-86
2023/01/03 05:18:43;;;;;;;5.80;0.57;;;13.20;73.90;13.40;97509.00;;;;5038454;28;20280;-84
2023/01/03 05:26:46;;;;;;;0.10;0.10;;;13.30;73.80;13.40;97523.00;;;;5037073;28;20240;-85
2023/01/03 05:29:20;;;;;;;20.60;1.63;;;13.30;73.70;13.40;97527.00;;;;5038911;28;20207;-86
2023/01/03 05:31:47;;;;;;;0.63;0.30;;;13.30;73.60;13.40;97533.00;;;;5037327;28;20689;-86
2023/01/03 05:34:15;;;;;;;10.77;0.93;;;13.30;73.60;13.50;97541.00;;;;5039630;28;20309;-86
2023/01/03 05:36:42;;;;;;;41.23;2.97;;;13.30;73.60;13.50;97534.00;;;;5038441;28;20346;-86
2023/01/03 05:39:09;;;;;;;26.40;2.10;;;13.30;73.60;13.50;97545.00;;;;5037510;28;20247;-86
2023/01/03 05:44:22;;;;;;;37.03;3.00;;;13.30;73.70;13.50;97533.00;;;;5037179;28;20228;-85
2023/01/03 05:46:50;;;;;;;11.67;0.80;;;13.30;73.70;13.50;97537.00;;;;5037885;28;20316;-86
2023/01/03 05:49:17;;;;;;;7.43;0.70;;;13.30;73.70;13.50;97549.00;;;;5037323;28;20207;-86
2023/01/03 05:51:44;;;;;;;13.80;1.27;;;13.30;73.60;13.50;97554.00;;;;5036840;28;20654;-87
2023/01/03 05:54:15;;;;;;;23.00;1.73;;;13.30;73.50;13.50;97553.00;;;;5037399;28;20216;-85
2023/01/03 05:56:42;;;;;;;1.70;0.50;;;13.30;73.50;13.50;97553.00;;;;5037440;28;20672;-85
2023/01/03 05:59:09;;;;;;;0.73;0.40;;;13.30;73.60;13.50;97550.00;;;;5037298;28;20196;-86
2023/01/03 06:01:38;;;;;;;1.03;0.40;;;13.30;73.60;13.50;97546.00;;;;5036185;28;20335;-86
2023/01/03 06:04:06;;;;;;;97.30;5.97;;;13.30;73.50;13.50;97552.00;;;;5037479;28;20218;-86
2023/01/03 06:06:33;;;;;;;33.83;2.80;;;13.30;73.60;13.50;97545.00;;;;5038223;28;21131;-86
2023/01/03 06:09:00;;;;;;;10.63;1.27;;;13.30;73.70;13.50;97550.00;;;;5036491;28;20225;-86
2023/01/03 06:11:27;;;;;;;6.37;0.87;;;13.30;73.80;13.50;97538.00;;;;5037445;28;20231;-85
2023/01/03 06:13:55;;;;;;;27.47;2.80;;;13.30;73.90;13.50;97540.00;;;;5036683;28;20221;-86
2023/01/03 06:19:09;;;;;;;36.67;2.83;;;13.30;74.20;13.40;97543.00;;;;5036464;28;20200;-86
2023/01/03 06:21:36;;;;;;;5.20;0.77;;;13.30;74.20;13.40;97549.00;;;;5035475;28;20304;-86
2023/01/03 06:24:05;;;;;;;43.93;4.40;;;13.30;74.30;13.40;97554.00;;;;5036276;28;20226;-85
2023/01/03 06:26:32;;;;;;;0.70;0.50;;;13.20;74.30;13.40;97560.00;;;;5034188;28;20297;-86
2023/01/03 06:29:00;;;;;;;5.73;1.00;;;13.20;74.40;13.40;97562.00;;;;5035047;28;20568;-86
2023/01/03 06:31:28;;;;;;;4.87;1.03;;;13.20;74.30;13.30;97573.00;;;;5034659;28;20248;-86
2023/01/03 06:33:55;;;;;;;4.10;1.13;;;13.20;74.40;13.30;97563.00;;;;5037073;28;20225;-86
2023/01/03 06:36:25;;;;;;;7.23;0.90;;;13.20;74.40;13.30;97566.00;;;;5035283;28;20619;-86
2023/01/03 06:38:53;;;;;;;2.17;0.70;;;13.20;74.50;13.30;97576.00;;;;5035387;28;20219;-85
2023/01/03 06:41:21;;;;;;;0.97;0.40;;;13.20;74.50;13.30;97568.00;;;;5040054;28;20227;-86
2023/01/03 06:43:48;;;;;;;27.97;3.20;;;13.10;74.40;13.30;97557.00;;;;5041946;28;20277;-86
2023/01/03 06:54:37;;;;;;;4.67;0.80;;;13.10;74.70;13.20;97558.00;;;;5035171;28;20223;-85
2023/01/03 06:57:05;;;;;;;1.93;0.83;;;13.10;74.80;13.20;97563.00;;;;5035097;28;21155;-86
2023/01/03 06:59:32;;;;;;;0.67;0.50;;;13.10;75.50;13.10;97564.00;;;;5036416;28;20212;-86
2023/01/03 07:02:00;;;;;;;4.43;0.87;;;13.00;74.70;13.10;97566.00;;;;5036564;28;20327;-86
2023/01/03 07:04:27;;;;;;;147.83;10.43;;;13.00;75.40;13.10;97575.00;;;;5036075;28;20901;-86
2023/01/03 07:06:56;;;;;;;35.07;3.10;;;13.00;74.70;13.10;97572.00;;;;5034810;28;20233;-85
2023/01/03 07:09:24;;;;;;;0.57;0.50;;;13.00;75.00;13.10;97576.00;;;;5035243;28;20193;-85
2023/01/03 07:11:51;;;;;;;7.17;1.33;;;13.00;75.00;13.10;97581.00;;;;5035481;28;20204;-86
2023/01/03 07:14:17;;;;;;;1.23;0.50;;;13.00;74.90;13.10;97580.00;;;;5035790;28;20221;-86
2023/01/03 07:16:48;;;;;;;51.17;3.37;;;12.90;74.80;13.00;97585.00;;;;5034357;28;20212;-86
2023/01/03 07:19:18;;;;;;;2.67;0.87;;;12.90;74.90;13.00;97584.00;;;;5035257;28;20228;-86
2023/01/03 07:21:46;;;;;;;54.67;4.87;;;12.90;75.00;13.00;97591.00;;;;5033401;28;20312;-86
2023/01/03 07:24:17;;;;;;;10.23;1.30;;;12.90;75.20;13.00;97597.00;;;;5038299;28;20304;-86
2023/01/03 07:26:44;;;;;;;26.33;2.53;;;12.90;75.30;13.00;97599.00;;;;5036589;28;20207;-85
2023/01/03 07:29:11;;;;;;;55.30;4.10;;;12.90;75.30;13.00;97593.00;;;;5040289;28;20233;-86
2023/01/03 07:31:40;;;;;;;10.10;1.47;;;12.90;75.50;13.00;97607.00;;;;5034666;28;20648;-86
2023/01/03 07:34:08;;;;;;;23.50;2.63;;;12.90;75.60;13.00;97615.00;;;;5037098;28;20260;-86
2023/01/03 07:36:36;;;;;;;27.87;2.77;;;12.90;75.60;13.00;97620.00;;;;5034743;28;20643;-86
2023/01/03 07:39:03;;;;;;;13.70;2.13;;;12.90;75.60;13.00;97627.00;;;;5036127;28;20767;-85
2023/01/03 07:44:16;;;;;;;4.13;1.43;;;12.90;75.70;13.00;97622.00;;;;5035482;28;20236;-86
2023/01/03 07:46:43;;;;;;;5.10;1.20;;;12.90;75.70;13.00;97615.00;;;;5035637;28;20204;-85
2023/01/03 07:49:11;;;;;;;3.87;1.27;;;12.90;75.80;13.10;97622.00;;;;5036762;28;20732;-86
2023/01/03 07:51:38;;;;;;;5.47;1.20;;;12.90;75.80;13.10;97627.00;;;;5036122;28;20299;-85
2023/01/03 07:54:06;;;;;;;5.47;1.40;;;12.90;75.80;13.00;97622.00;;;;5034922;28;20245;-86
2023/01/03 07:56:34;;;;;;;10.63;3.10;;;12.90;75.80;13.00;97619.00;;;;5034766;28;20205;-86
2023/01/03 07:59:01;;;;;;;10.07;3.73;;;12.90;75.80;13.10;97626.00;;;;5035094;28;20302;-86
2023/01/03 08:01:29;;;;;;;17.47;4.57;;;12.90;76.00;13.00;97625.00;;;;5033636;28;20315;-86
2023/01/03 08:03:56;;;;;;;15.90;6.40;;;12.80;76.10;13.00;97627.00;;;;5035265;28;20786;-85
2023/01/03 08:06:24;;;;;;;22.03;7.20;;;12.90;76.30;13.10;97621.00;;;;5033952;28;20587;-85
2023/01/03 08:14:20;;;;;;;41.10;6.50;;;12.90;76.50;13.10;97632.00;;;;5035698;28;20223;-89
2023/01/03 08:16:47;;;;;;;20.53;4.73;;;12.90;76.50;13.10;97625.00;;;;5036641;28;20602;-89
2023/01/03 08:19:14;;;;;;;47.43;5.83;;;12.90;76.50;13.20;97637.00;;;;5032527;28;20216;-89
2023/01/03 08:21:41;;;;;;;24.07;3.23;;;12.90;76.60;13.20;97640.00;;;;5036219;28;21118;-89
2023/01/03 08:24:08;;;;;;;34.53;3.27;;;13.00;76.70;13.30;97637.00;;;;5037621;28;20311;-89
2023/01/03 08:26:37;;;;;;;17.23;3.10;;;13.00;76.70;13.30;97640.00;;;;5037142;28;20284;-88
2023/01/03 08:29:04;;;;;;;3.33;2.23;;;13.00;76.70;13.30;97635.00;;;;5037215;28;20294;-88
2023/01/03 08:31:38;;;;;;;3.33;2.07;;;13.00;76.80;13.40;97643.00;;;;5035459;28;20275;-89
2023/01/03 08:34:10;;;;;;;11.23;2.33;;;13.00;76.70;13.40;97643.00;;;;5031308;28;20221;-88
2023/01/03 08:36:45;;;;;;;1.60;1.50;;;13.10;76.80;13.40;97655.00;;;;5032017;28;20235;-88
2023/01/03 08:39:18;;;;;;;1.77;1.67;;;13.10;76.70;13.40;97654.00;;;;5034333;28;20274;-88
2023/01/03 08:41:54;;;;;;;3.43;1.93;;;13.10;76.60;13.40;97661.00;;;;5033730;28;20295;-88
2023/01/03 08:44:22;;;;;;;9.53;2.47;;;13.10;76.60;13.50;97664.00;;;;5036382;28;20243;-88
2023/01/03 08:46:53;;;;;;;14.47;2.30;;;13.10;76.80;13.50;97662.00;;;;5041045;28;20205;-88
2023/01/03 08:49:20;;;;;;;2.60;1.37;;;13.10;76.90;13.50;97671.00;;;;5038699;28;20255;-89
2023/01/03 08:51:48;;;;;;;3.33;1.10;;;13.10;76.70;13.50;97668.00;;;;5037284;28;21240;-88
2023/01/03 08:54:15;;;;;;;1.23;1.13;;;13.20;76.70;13.50;97672.00;;;;5041305;28;20287;-89
2023/01/03 08:56:42;;;;;;;2.07;1.30;;;13.20;76.70;13.50;97672.00;;;;5035330;28;20208;-88
2023/01/03 08:59:10;;;;;;;4.13;1.87;;;13.20;76.80;13.50;97675.00;;;;5039536;28;20239;-88
2023/01/03 09:01:39;;;;;;;34.43;3.43;;;13.20;76.70;13.50;97686.00;;;;5037773;28;20314;-88
2023/01/03 09:04:08;;;;;;;1.80;1.70;;;13.20;76.80;13.60;97678.00;;;;5038254;28;20229;-88
2023/01/03 09:06:35;;;;;;;5.27;1.63;;;13.30;76.80;13.60;97678.00;;;;5038061;28;20219;-88
2023/01/03 09:09:05;;;;;;;19.37;3.30;;;13.30;76.90;13.60;97680.00;;;;5039262;28;20209;-88
2023/01/03 09:11:32;;;;;;;43.90;5.07;;;13.30;76.80;13.60;97688.00;;;;5038456;28;20339;-87
2023/01/03 09:13:59;;;;;;;1.90;1.80;;;13.30;76.90;13.60;97691.00;;;;5039037;28;20309;-88
2023/01/03 09:16:28;;;;;;;14.07;2.40;;;13.30;76.90;13.60;97691.00;;;;5042390;28;20204;-87
2023/01/03 09:18:55;;;;;;;11.13;3.13;;;13.30;76.90;13.60;97691.00;;;;5036517;28;20200;-88
2023/01/03 09:21:22;;;;;;;11.93;3.17;;;13.30;76.90;13.60;97697.00;;;;5038569;28;20189;-88
2023/01/03 09:23:49;;;;;;;10.67;2.73;;;13.30;76.90;13.60;97700.00;;;;5039081;28;20225;-87
2023/01/03 09:26:17;;;;;;;10.43;2.60;;;13.30;76.90;13.60;97701.00;;;;5039215;28;20283;-88
2023/01/03 09:28:44;;;;;;;2.03;1.83;;;13.30;76.90;13.60;97702.00;;;;5039154;28;20375;-88
2023/01/03 09:31:11;;;;;;;2.43;1.87;;;13.30;76.90;13.60;97704.00;;;;5040736;28;20236;-89
2023/01/03 09:33:39;;;;;;;4.90;1.97;;;13.30;76.90;13.60;97709.00;;;;5037422;28;20263;-88
2023/01/03 09:36:07;;;;;;;12.03;2.57;;;13.30;76.80;13.60;97709.00;;;;5040989;28;20280;-87
2023/01/03 09:38:35;;;;;;;16.73;3.17;;;13.30;76.90;13.60;97705.00;;;;5039370;28;20294;-88
2023/01/03 09:41:05;;;;;;;2.53;1.80;;;13.30;76.90;13.60;97707.00;;;;5038558;28;20276;-88
2023/01/03 09:43:39;;;;;;;17.13;2.50;;;13.30;76.90;13.60;97712.00;;;;5040936;28;20221;-88
2023/01/03 09:46:15;;;;;;;3.73;1.47;;;13.30;76.90;13.60;97707.00;;;;5038195;28;20232;-88
2023/01/03 09:48:44;;;;;;;2.23;1.33;;;13.30;76.90;13.60;97704.00;;;;5036374;28;20283;-87
2023/01/03 10:05:56;;;;;;;1.80;1.50;;;13.30;77.30;13.50;97694.00;;;;5039989;28;20705;-85
2023/01/03 10:08:44;;;;;;;1.90;1.80;;;13.30;77.30;13.50;97691.00;;;;5038982;28;20721;-87
2023/01/03 10:11:21;;;;;;;6.77;1.90;;;13.30;77.30;13.50;97686.00;;;;5039246;28;20685;-87
2023/01/03 10:14:12;;;;;;;4.60;1.47;;;13.30;77.30;13.60;97690.00;;;;5038588;28;20622;-88
2023/01/03 10:16:53;;;;;;;5.43;2.10;;;13.30;77.30;13.60;97688.00;;;;5039412;28;20620;-88
2023/01/03 10:19:56;;;;;;;37.30;4.00;;;13.30;77.50;13.60;97691.00;;;;5039091;28;20280;-87
2023/01/03 10:22:28;;;;;;;5.87;1.90;;;13.30;77.40;13.60;97685.00;;;;5037040;28;20225;-87
2023/01/03 10:25:10;;;;;;;2.83;1.80;;;13.30;77.50;13.70;97678.00;;;;5036561;28;20280;-87
2023/01/03 10:27:45;;;;;;;12.90;2.20;;;13.40;77.60;13.70;97678.00;;;;5040513;28;20192;-87
2023/01/03 10:30:17;;;;;;;3.93;1.73;;;13.40;77.60;13.70;97675.00;;;;5037172;28;20284;-87
2023/01/03 10:33:18;;;;;;;5.50;1.57;;;13.40;77.50;13.70;97679.00;;;;5036458;28;20252;-87
2023/01/03 10:35:46;;;;;;;14.07;3.20;;;13.40;77.40;13.70;97673.00;;;;5040187;28;20323;-87
2023/01/03 10:38:16;;;;;;;12.20;2.57;;;13.50;77.50;13.80;97677.00;;;;5041251;28;20291;-87
2023/01/03 10:40:47;;;;;;;12.23;3.10;;;13.40;77.60;13.80;97674.00;;;;5038149;28;20201;-88
2023/01/03 10:43:19;;;;;;;12.90;2.77;;;13.50;77.90;13.90;97681.00;;;;5038589;28;20272;-88
2023/01/03 10:45:56;;;;;;;2.10;2.00;;;13.50;77.90;13.90;97684.00;;;;5039973;28;20311;-88
2023/01/03 10:48:25;;;;;;;25.90;3.93;;;13.50;77.90;13.90;97681.00;;;;5037693;28;20210;-88
2023/01/03 10:50:53;;;;;;;2.20;2.00;;;13.50;78.00;14.00;97688.00;;;;5038763;28;20215;-88
2023/01/03 10:53:23;;;;;;;2.13;1.93;;;13.60;78.00;14.00;97685.00;;;;5038034;28;20731;-88
2023/01/03 10:55:54;;;;;;;1.50;1.40;;;13.60;77.90;14.10;97681.00;;;;5037414;28;20271;-88
2023/01/03 10:58:25;;;;;;;1.40;1.30;;;13.70;77.90;14.10;97682.00;;;;5037665;28;20193;-87
2023/01/03 11:00:54;;;;;;;1.40;1.40;;;13.70;77.70;14.10;97692.00;;;;5038216;28;20307;-87
2023/01/03 11:03:25;;;;;;;2.37;1.40;;;13.70;77.50;14.10;97685.00;;;;5036394;28;20245;-87
2023/01/03 11:06:12;;;;;;;11.73;2.13;;;13.80;77.40;14.10;97678.00;;;;5036810;28;20850;-88
2023/01/03 11:08:44;;;;;;;8.67;1.83;;;13.80;77.40;14.10;97663.00;;;;5037633;28;20200;-87
2023/01/03 11:11:31;;;;;;;1.40;1.30;;;13.80;77.50;14.20;97678.00;;;;5036898;28;20277;-88
2023/01/03 11:14:23;;;;;;;2.30;1.00;;;13.80;77.40;14.20;97675.00;;;;5038769;28;20251;-87
2023/01/03 11:17:04;;;;;;;1.27;1.27;;;13.90;77.40;14.20;97671.00;;;;5033847;28;20488;-87
2023/01/03 11:19:38;;;;;;;6.60;2.20;;;13.90;77.40;14.20;97674.00;;;;5034454;28;20231;-87
2023/01/03 11:22:14;;;;;;;1.70;1.60;;;13.90;77.60;14.20;97672.00;;;;5038513;28;20300;-88
2023/01/03 11:25:06;;;;;;;12.03;2.10;;;13.90;77.70;14.30;97676.00;;;;5035337;28;20231;-88
2023/01/03 11:28:11;;;;;;;1.47;1.40;;;14.00;77.60;14.30;97669.00;;;;5039326;28;20196;-88
2023/01/03 11:30:47;;;;;;;3.37;1.50;;;13.90;77.20;14.20;97667.00;;;;5039287;28;20691;-88
2023/01/03 11:33:36;;;;;;;1.30;1.30;;;14.00;77.30;14.20;97659.00;;;;5040616;28;20873;-88
2023/01/03 11:36:30;;;;;;;16.00;2.60;;;14.00;77.30;14.20;97672.00;;;;5040153;28;20280;-88
2023/01/03 11:39:19;;;;;;;2.47;1.30;;;14.00;77.20;14.20;97670.00;;;;5040757;28;20207;-87
2023/01/03 11:42:13;;;;;;;6.10;1.40;;;14.00;77.00;14.20;97665.00;;;;5038988;28;20291;-87
2023/01/03 11:45:27;;;;;;;1.57;1.10;;;14.00;77.00;14.20;97658.00;;;;5038340;28;20235;-87
2023/01/03 11:48:11;;;;;;;6.83;1.60;;;14.00;77.00;14.20;97657.00;;;;5036166;28;20197;-87
2023/01/03 11:50:53;;;;;;;7.20;1.67;;;14.00;77.00;14.20;97652.00;;;;5035478;28;20312;-88
2023/01/03 11:53:35;;;;;;;1.13;1.03;;;14.00;77.00;14.20;97650.00;;;;5040971;28;20319;-87
2023/01/03 11:56:25;;;;;;;2.70;1.40;;;14.00;77.00;14.20;97654.00;;;;5035770;28;20558;-88
2023/01/03 11:59:23;;;;;;;1.37;1.27;;;14.00;76.80;14.20;97654.00;;;;5032666;28;20221;-88
2023/01/03 12:02:51;;;;;;;1.30;0.90;;;14.00;77.50;14.20;97658.00;;;;5037352;28;20193;-88
2023/01/03 12:05:41;;;;;;;2.57;1.20;;;14.00;76.20;14.10;97653.00;;;;5027795;28;20240;-88
2023/01/03 12:08:53;;;;;;;2.23;1.43;;;14.00;76.40;14.10;97650.00;;;;5041245;28;20274;-87
2023/01/03 12:12:00;;;;;;;1.60;1.50;;;13.90;76.60;14.10;97650.00;;;;5037463;28;20206;-87
2023/01/03 12:14:36;;;;;;;1.53;1.30;;;13.90;76.50;14.10;97647.00;;;;5038854;28;20720;-87
2023/01/03 12:17:10;;;;;;;1.60;1.50;;;13.90;76.50;14.10;97649.00;;;;5040931;28;20275;-88
2023/01/03 12:19:44;;;;;;;7.40;1.60;;;13.90;76.70;14.10;97652.00;;;;5040706;28;20677;-88
2023/01/03 12:22:23;;;;;;;7.27;1.77;;;13.90;76.60;14.10;97648.00;;;;5039033;28;20196;-88